Language selection

Weather shortcuts

Lake Nipigon: Past 24 Hour Conditions

 

Thunder Bay Airport

04:00 PM EDT 26 May 2024
Disclaimer

This table is a summary of hourly weather conditions for the past 24 hours.
Please note that these observations might not always be representative of weather conditions over their associated marine area.

Date / Time
(EDT)
Wind(knots) Conditions Visibility(km) Pressure(kPa) Air tempC) Relative humidity(%) Dew pointC)
26 May 2024
16:00 E 11 Mostly Cloudy 32 100.9 15 61 8
15:00 ENE 10 Mostly Cloudy 32 100.9 17 55 8
14:00 E 8 Mostly Cloudy 32 100.9 15 60 8
13:00 ESE 2 Mostly Cloudy 32 101.0 14 64 7
12:00 ENE 4 Mostly Cloudy 32 101.0 12 72 7
11:00 N 1 Mostly Cloudy 32 101.0 10 79 7
10:00 NNW 2 Mostly Cloudy 32 101.0 9 84 7
9:00 WNW 3 Mostly Cloudy 32 101.0 9 85 7
8:00 N 2 Mostly Cloudy 32 100.9 8 87 6
7:00 NW 4 Partly Cloudy 32 100.9 5 95 4
6:00 WSW 3 Partly Cloudy 32 100.8 5 98 4
5:00 S 2 Mainly Clear 24 100.8 4 97 4
4:00 WSW 2 Mainly Clear 32 100.8 4 95 4
3:00 W 2 Mainly Clear 24 100.7 6 95 5
2:00 NW 3 Clear 24 100.7 6 93 5
1:00 NNE 2 Clear 24 100.7 8 85 5
0:00 N 6 Partly Cloudy 24 100.7 8 82 5
25 May 2024
23:00 NE 5 Mostly Cloudy 24 100.6 9 79 5
22:00 NNE 9 Partly Cloudy 32 100.6 10 74 6
21:00 ESE 2 Partly Cloudy 32 100.4 18 49 7
20:00 SSW 9 gusts 18 Partly Cloudy 32 100.4 20 43 7
19:00 SSW 12 gusts 19 Partly Cloudy 32 100.4 19 43 6
18:00 S 11 gusts 21 Partly Cloudy 32 100.4 19 43 6
17:00 S 14 gusts 19 Partly Cloudy 32 100.4 20 38 5
16:00 SSW 5 Partly Cloudy 32 100.4 18 46 6

Zoom-in to make a selection

Map of Great Lakes - Lake Superior marine weather areas Mid Superior - 45001 East Superior - 45004 West Superior - 45006 Slate Island - 45136 Lake Of the Woods - 45148 Kenora Airport Royal Island Armstrong Airport Caribou Island Marathon Airport Pukaskwa National Park Thunder Bay Airport Welcome Island Little Flatland Island Sault Ste. Marie Airport Wawa Airport
Legend:
buoy Buoy
land station Land Station

Great Lakes - Lake Superior Area

Another Region

Features

New Predicting and Alerting Coastal Flooding Program

Find out about coastal flooding coverage, forecasts and warnings in your region

Date modified: